sensor_id;sensor_type;location;lat;lon;timestamp;P1;durP1;ratioP1;P2;durP2;ratioP2
24259;SDS011;12384;48.112;18.418;2023-07-16T00:00:37;18.20;;;17.10;;
24259;SDS011;12384;48.112;18.418;2023-07-16T00:03:06;17.10;;;16.00;;
24259;SDS011;12384;48.112;18.418;2023-07-16T00:05:36;17.37;;;16.27;;
24259;SDS011;12384;48.112;18.418;2023-07-16T00:08:05;17.30;;;16.20;;
24259;SDS011;12384;48.112;18.418;2023-07-16T00:10:35;16.53;;;15.53;;
24259;SDS011;12384;48.112;18.418;2023-07-16T00:13:04;16.10;;;15.07;;
24259;SDS011;12384;48.112;18.418;2023-07-16T00:15:33;15.93;;;14.93;;
24259;SDS011;12384;48.112;18.418;2023-07-16T00:18:01;15.90;;;14.90;;
24259;SDS011;12384;48.112;18.418;2023-07-16T00:20:31;16.37;;;15.17;;
24259;SDS011;12384;48.112;18.418;2023-07-16T00:22:59;16.57;;;15.57;;
24259;SDS011;12384;48.112;18.418;2023-07-16T00:25:28;16.17;;;15.17;;
24259;SDS011;12384;48.112;18.418;2023-07-16T00:27:58;16.77;;;15.77;;
24259;SDS011;12384;48.112;18.418;2023-07-16T00:30:27;16.53;;;15.33;;
24259;SDS011;12384;48.112;18.418;2023-07-16T00:32:55;16.13;;;15.00;;
24259;SDS011;12384;48.112;18.418;2023-07-16T00:35:24;17.40;;;16.17;;
24259;SDS011;12384;48.112;18.418;2023-07-16T00:37:52;16.17;;;15.13;;
24259;SDS011;12384;48.112;18.418;2023-07-16T00:40:21;16.33;;;15.30;;
24259;SDS011;12384;48.112;18.418;2023-07-16T00:42:49;17.47;;;16.20;;
24259;SDS011;12384;48.112;18.418;2023-07-16T00:45:19;15.20;;;14.30;;
24259;SDS011;12384;48.112;18.418;2023-07-16T00:47:47;15.80;;;14.70;;
24259;SDS011;12384;48.112;18.418;2023-07-16T00:50:16;16.23;;;15.03;;
24259;SDS011;12384;48.112;18.418;2023-07-16T00:52:45;15.47;;;14.47;;
24259;SDS011;12384;48.112;18.418;2023-07-16T00:55:14;15.10;;;14.07;;
24259;SDS011;12384;48.112;18.418;2023-07-16T00:57:43;15.30;;;14.30;;
24259;SDS011;12384;48.112;18.418;2023-07-16T01:00:14;16.30;;;15.30;;
24259;SDS011;12384;48.112;18.418;2023-07-16T01:02:44;15.10;;;13.87;;
24259;SDS011;12384;48.112;18.418;2023-07-16T01:05:13;16.40;;;15.20;;
24259;SDS011;12384;48.112;18.418;2023-07-16T01:07:42;16.00;;;14.90;;
24259;SDS011;12384;48.112;18.418;2023-07-16T01:10:21;15.40;;;14.40;;
24259;SDS011;12384;48.112;18.418;2023-07-16T01:12:50;15.03;;;14.00;;
24259;SDS011;12384;48.112;18.418;2023-07-16T01:15:22;15.03;;;14.13;;
24259;SDS011;12384;48.112;18.418;2023-07-16T01:17:53;14.80;;;13.90;;
24259;SDS011;12384;48.112;18.418;2023-07-16T01:20:21;16.00;;;14.87;;
24259;SDS011;12384;48.112;18.418;2023-07-16T01:22:58;14.27;;;13.17;;
24259;SDS011;12384;48.112;18.418;2023-07-16T01:25:42;15.43;;;14.53;;
24259;SDS011;12384;48.112;18.418;2023-07-16T01:28:43;14.33;;;13.43;;
24259;SDS011;12384;48.112;18.418;2023-07-16T01:31:23;14.50;;;13.60;;
24259;SDS011;12384;48.112;18.418;2023-07-16T01:33:52;15.20;;;14.30;;
24259;SDS011;12384;48.112;18.418;2023-07-16T01:36:22;15.80;;;14.80;;
24259;SDS011;12384;48.112;18.418;2023-07-16T01:38:51;15.93;;;14.87;;
24259;SDS011;12384;48.112;18.418;2023-07-16T01:41:20;16.07;;;15.07;;
24259;SDS011;12384;48.112;18.418;2023-07-16T01:43:48;17.00;;;15.80;;
24259;SDS011;12384;48.112;18.418;2023-07-16T01:46:17;16.93;;;15.73;;
24259;SDS011;12384;48.112;18.418;2023-07-16T01:48:47;16.93;;;15.83;;
24259;SDS011;12384;48.112;18.418;2023-07-16T01:51:16;16.63;;;15.63;;
24259;SDS011;12384;48.112;18.418;2023-07-16T01:53:46;16.03;;;15.10;;
24259;SDS011;12384;48.112;18.418;2023-07-16T01:56:15;17.07;;;15.83;;
24259;SDS011;12384;48.112;18.418;2023-07-16T01:58:47;17.67;;;16.57;;
24259;SDS011;12384;48.112;18.418;2023-07-16T02:01:16;17.63;;;16.40;;
24259;SDS011;12384;48.112;18.418;2023-07-16T02:03:45;15.60;;;14.60;;
24259;SDS011;12384;48.112;18.418;2023-07-16T02:06:15;16.00;;;15.00;;
24259;SDS011;12384;48.112;18.418;2023-07-16T02:08:44;16.13;;;15.03;;
24259;SDS011;12384;48.112;18.418;2023-07-16T02:11:12;15.40;;;14.30;;
24259;SDS011;12384;48.112;18.418;2023-07-16T02:13:40;15.77;;;14.77;;
24259;SDS011;12384;48.112;18.418;2023-07-16T02:16:09;15.63;;;14.53;;
24259;SDS011;12384;48.112;18.418;2023-07-16T02:18:39;15.10;;;14.20;;
24259;SDS011;12384;48.112;18.418;2023-07-16T02:21:08;15.33;;;14.13;;
24259;SDS011;12384;48.112;18.418;2023-07-16T02:23:37;14.63;;;13.63;;
24259;SDS011;12384;48.112;18.418;2023-07-16T02:26:06;16.10;;;15.07;;
24259;SDS011;12384;48.112;18.418;2023-07-16T02:28:34;14.67;;;13.60;;
24259;SDS011;12384;48.112;18.418;2023-07-16T02:31:03;15.33;;;14.37;;
24259;SDS011;12384;48.112;18.418;2023-07-16T02:33:31;15.03;;;14.13;;
24259;SDS011;12384;48.112;18.418;2023-07-16T02:36:00;15.90;;;14.80;;
24259;SDS011;12384;48.112;18.418;2023-07-16T02:38:28;15.47;;;14.37;;
24259;SDS011;12384;48.112;18.418;2023-07-16T02:40:58;14.90;;;13.87;;
24259;SDS011;12384;48.112;18.418;2023-07-16T02:43:27;14.67;;;13.77;;
24259;SDS011;12384;48.112;18.418;2023-07-16T02:45:55;14.13;;;13.23;;
24259;SDS011;12384;48.112;18.418;2023-07-16T02:48:23;14.43;;;13.40;;
24259;SDS011;12384;48.112;18.418;2023-07-16T02:50:52;14.80;;;13.80;;
24259;SDS011;12384;48.112;18.418;2023-07-16T02:53:20;14.60;;;13.60;;
24259;SDS011;12384;48.112;18.418;2023-07-16T02:55:49;15.10;;;14.20;;
24259;SDS011;12384;48.112;18.418;2023-07-16T02:58:18;14.83;;;13.73;;
24259;SDS011;12384;48.112;18.418;2023-07-16T03:00:47;14.40;;;13.37;;
24259;SDS011;12384;48.112;18.418;2023-07-16T03:03:16;14.17;;;13.27;;
24259;SDS011;12384;48.112;18.418;2023-07-16T03:05:44;15.57;;;14.57;;
24259;SDS011;12384;48.112;18.418;2023-07-16T03:08:12;14.93;;;13.93;;
24259;SDS011;12384;48.112;18.418;2023-07-16T03:10:41;15.50;;;14.50;;
24259;SDS011;12384;48.112;18.418;2023-07-16T03:13:10;14.63;;;13.73;;
24259;SDS011;12384;48.112;18.418;2023-07-16T03:15:40;14.97;;;14.03;;
24259;SDS011;12384;48.112;18.418;2023-07-16T03:18:10;13.93;;;13.03;;
24259;SDS011;12384;48.112;18.418;2023-07-16T03:20:38;15.20;;;14.00;;
24259;SDS011;12384;48.112;18.418;2023-07-16T03:23:07;14.23;;;13.23;;
24259;SDS011;12384;48.112;18.418;2023-07-16T03:25:36;16.07;;;15.07;;
24259;SDS011;12384;48.112;18.418;2023-07-16T03:28:04;12.70;;;11.80;;
24259;SDS011;12384;48.112;18.418;2023-07-16T03:30:33;14.20;;;13.20;;
24259;SDS011;12384;48.112;18.418;2023-07-16T03:33:03;14.50;;;13.60;;
24259;SDS011;12384;48.112;18.418;2023-07-16T03:35:33;14.23;;;13.23;;
24259;SDS011;12384;48.112;18.418;2023-07-16T03:38:02;13.30;;;12.50;;
24259;SDS011;12384;48.112;18.418;2023-07-16T03:40:30;13.30;;;12.40;;
24259;SDS011;12384;48.112;18.418;2023-07-16T03:42:59;13.30;;;12.37;;
24259;SDS011;12384;48.112;18.418;2023-07-16T03:45:28;12.90;;;12.00;;
24259;SDS011;12384;48.112;18.418;2023-07-16T03:47:56;12.77;;;11.87;;
24259;SDS011;12384;48.112;18.418;2023-07-16T03:50:26;13.03;;;12.23;;
24259;SDS011;12384;48.112;18.418;2023-07-16T03:52:54;11.80;;;11.00;;
24259;SDS011;12384;48.112;18.418;2023-07-16T03:55:23;13.10;;;12.23;;
24259;SDS011;12384;48.112;18.418;2023-07-16T03:57:52;12.67;;;11.87;;
24259;SDS011;12384;48.112;18.418;2023-07-16T04:00:20;11.87;;;11.17;;
24259;SDS011;12384;48.112;18.418;2023-07-16T04:02:51;13.00;;;12.20;;
24259;SDS011;12384;48.112;18.418;2023-07-16T04:05:19;12.53;;;11.63;;
24259;SDS011;12384;48.112;18.418;2023-07-16T04:07:52;13.37;;;12.37;;
24259;SDS011;12384;48.112;18.418;2023-07-16T04:10:20;15.27;;;14.17;;
24259;SDS011;12384;48.112;18.418;2023-07-16T04:12:49;15.00;;;14.00;;
24259;SDS011;12384;48.112;18.418;2023-07-16T04:15:17;12.80;;;11.83;;
24259;SDS011;12384;48.112;18.418;2023-07-16T04:17:45;12.50;;;11.70;;
24259;SDS011;12384;48.112;18.418;2023-07-16T04:20:14;12.73;;;11.93;;
24259;SDS011;12384;48.112;18.418;2023-07-16T04:22:42;13.07;;;11.97;;
24259;SDS011;12384;48.112;18.418;2023-07-16T04:25:12;11.90;;;11.00;;
24259;SDS011;12384;48.112;18.418;2023-07-16T04:27:41;12.90;;;12.10;;
24259;SDS011;12384;48.112;18.418;2023-07-16T04:30:10;12.20;;;11.40;;
24259;SDS011;12384;48.112;18.418;2023-07-16T04:32:39;11.77;;;11.03;;
24259;SDS011;12384;48.112;18.418;2023-07-16T04:35:08;12.57;;;11.57;;
24259;SDS011;12384;48.112;18.418;2023-07-16T04:37:36;12.07;;;11.27;;
24259;SDS011;12384;48.112;18.418;2023-07-16T04:40:05;12.67;;;11.73;;
24259;SDS011;12384;48.112;18.418;2023-07-16T04:42:36;12.20;;;11.30;;
24259;SDS011;12384;48.112;18.418;2023-07-16T04:45:04;12.10;;;11.40;;
24259;SDS011;12384;48.112;18.418;2023-07-16T04:47:33;12.83;;;12.00;;
24259;SDS011;12384;48.112;18.418;2023-07-16T04:50:02;11.87;;;11.07;;
24259;SDS011;12384;48.112;18.418;2023-07-16T04:52:30;11.70;;;11.00;;
24259;SDS011;12384;48.112;18.418;2023-07-16T04:54:59;12.13;;;11.33;;
24259;SDS011;12384;48.112;18.418;2023-07-16T04:57:28;12.73;;;11.70;;
24259;SDS011;12384;48.112;18.418;2023-07-16T04:59:57;11.67;;;10.87;;
24259;SDS011;12384;48.112;18.418;2023-07-16T05:02:26;10.93;;;10.23;;
24259;SDS011;12384;48.112;18.418;2023-07-16T05:04:54;11.17;;;10.37;;
24259;SDS011;12384;48.112;18.418;2023-07-16T05:07:23;10.87;;;9.93;;
24259;SDS011;12384;48.112;18.418;2023-07-16T05:09:56;10.90;;;10.10;;
24259;SDS011;12384;48.112;18.418;2023-07-16T05:12:25;10.30;;;9.60;;
24259;SDS011;12384;48.112;18.418;2023-07-16T05:14:53;10.03;;;9.43;;
24259;SDS011;12384;48.112;18.418;2023-07-16T05:17:23;10.63;;;9.87;;
24259;SDS011;12384;48.112;18.418;2023-07-16T05:19:51;10.70;;;10.00;;
24259;SDS011;12384;48.112;18.418;2023-07-16T05:22:20;10.43;;;9.55;;
24259;SDS011;12384;48.112;18.418;2023-07-16T05:24:48;9.48;;;8.70;;
24259;SDS011;12384;48.112;18.418;2023-07-16T05:27:17;10.02;;;9.43;;
24259;SDS011;12384;48.112;18.418;2023-07-16T05:29:45;10.70;;;10.00;;
24259;SDS011;12384;48.112;18.418;2023-07-16T05:32:14;10.57;;;9.88;;
24259;SDS011;12384;48.112;18.418;2023-07-16T05:34:44;10.70;;;9.90;;
24259;SDS011;12384;48.112;18.418;2023-07-16T05:37:12;9.82;;;9.15;;
24259;SDS011;12384;48.112;18.418;2023-07-16T05:39:41;10.82;;;9.88;;
24259;SDS011;12384;48.112;18.418;2023-07-16T05:42:09;10.18;;;9.48;;
24259;SDS011;12384;48.112;18.418;2023-07-16T05:44:37;9.85;;;9.23;;
24259;SDS011;12384;48.112;18.418;2023-07-16T05:47:06;10.18;;;9.48;;
24259;SDS011;12384;48.112;18.418;2023-07-16T05:49:34;10.75;;;9.90;;
24259;SDS011;12384;48.112;18.418;2023-07-16T05:52:04;10.00;;;9.27;;
24259;SDS011;12384;48.112;18.418;2023-07-16T05:54:34;9.90;;;9.13;;
24259;SDS011;12384;48.112;18.418;2023-07-16T05:57:02;10.25;;;9.55;;
24259;SDS011;12384;48.112;18.418;2023-07-16T05:59:30;10.00;;;9.38;;
24259;SDS011;12384;48.112;18.418;2023-07-16T06:02:01;10.45;;;9.52;;
24259;SDS011;12384;48.112;18.418;2023-07-16T06:04:29;10.50;;;9.80;;
24259;SDS011;12384;48.112;18.418;2023-07-16T06:06:58;11.52;;;9.15;;
24259;SDS011;12384;48.112;18.418;2023-07-16T06:09:27;9.80;;;8.98;;
24259;SDS011;12384;48.112;18.418;2023-07-16T06:11:56;10.20;;;9.40;;
24259;SDS011;12384;48.112;18.418;2023-07-16T06:14:24;9.88;;;9.27;;
24259;SDS011;12384;48.112;18.418;2023-07-16T06:16:53;10.50;;;9.68;;
24259;SDS011;12384;48.112;18.418;2023-07-16T06:19:22;10.75;;;9.80;;
24259;SDS011;12384;48.112;18.418;2023-07-16T06:21:50;10.43;;;9.63;;
24259;SDS011;12384;48.112;18.418;2023-07-16T06:24:19;9.52;;;8.82;;
24259;SDS011;12384;48.112;18.418;2023-07-16T06:26:48;10.75;;;10.02;;
24259;SDS011;12384;48.112;18.418;2023-07-16T06:29:17;10.00;;;9.38;;
24259;SDS011;12384;48.112;18.418;2023-07-16T06:31:54;10.45;;;9.65;;
24259;SDS011;12384;48.112;18.418;2023-07-16T06:34:23;10.30;;;9.60;;
24259;SDS011;12384;48.112;18.418;2023-07-16T06:36:52;10.43;;;9.45;;
24259;SDS011;12384;48.112;18.418;2023-07-16T06:39:20;10.02;;;9.23;;
24259;SDS011;12384;48.112;18.418;2023-07-16T06:41:50;9.98;;;9.27;;
24259;SDS011;12384;48.112;18.418;2023-07-16T06:44:21;9.60;;;8.90;;
24259;SDS011;12384;48.112;18.418;2023-07-16T06:46:50;10.13;;;9.50;;
24259;SDS011;12384;48.112;18.418;2023-07-16T06:49:19;10.02;;;9.02;;
24259;SDS011;12384;48.112;18.418;2023-07-16T06:51:49;10.07;;;9.13;;
24259;SDS011;12384;48.112;18.418;2023-07-16T06:54:17;9.40;;;8.80;;
24259;SDS011;12384;48.112;18.418;2023-07-16T06:56:46;11.45;;;10.43;;
24259;SDS011;12384;48.112;18.418;2023-07-16T06:59:15;10.00;;;9.30;;
24259;SDS011;12384;48.112;18.418;2023-07-16T07:01:44;10.93;;;10.02;;
24259;SDS011;12384;48.112;18.418;2023-07-16T07:04:12;10.50;;;9.48;;
24259;SDS011;12384;48.112;18.418;2023-07-16T07:06:41;9.75;;;9.05;;
24259;SDS011;12384;48.112;18.418;2023-07-16T07:09:09;10.68;;;9.32;;
24259;SDS011;12384;48.112;18.418;2023-07-16T07:11:37;9.35;;;8.65;;
24259;SDS011;12384;48.112;18.418;2023-07-16T07:14:06;9.80;;;9.02;;
24259;SDS011;12384;48.112;18.418;2023-07-16T07:16:38;9.23;;;8.52;;
24259;SDS011;12384;48.112;18.418;2023-07-16T07:19:07;9.30;;;8.70;;
24259;SDS011;12384;48.112;18.418;2023-07-16T07:21:36;8.90;;;8.40;;
24259;SDS011;12384;48.112;18.418;2023-07-16T07:24:05;9.75;;;9.07;;
24259;SDS011;12384;48.112;18.418;2023-07-16T07:26:33;9.65;;;8.95;;
24259;SDS011;12384;48.112;18.418;2023-07-16T07:29:02;10.13;;;9.18;;
24259;SDS011;12384;48.112;18.418;2023-07-16T07:31:30;9.90;;;9.30;;
24259;SDS011;12384;48.112;18.418;2023-07-16T07:34:00;8.95;;;8.20;;
24259;SDS011;12384;48.112;18.418;2023-07-16T07:36:29;9.40;;;8.85;;
24259;SDS011;12384;48.112;18.418;2023-07-16T07:38:57;9.63;;;8.93;;
24259;SDS011;12384;48.112;18.418;2023-07-16T07:41:26;9.48;;;8.90;;
24259;SDS011;12384;48.112;18.418;2023-07-16T07:43:54;9.60;;;8.90;;
24259;SDS011;12384;48.112;18.418;2023-07-16T07:46:23;9.77;;;9.18;;
24259;SDS011;12384;48.112;18.418;2023-07-16T07:48:51;10.10;;;9.30;;
24259;SDS011;12384;48.112;18.418;2023-07-16T07:51:21;10.32;;;9.63;;
24259;SDS011;12384;48.112;18.418;2023-07-16T07:53:50;8.98;;;8.27;;
24259;SDS011;12384;48.112;18.418;2023-07-16T07:56:18;10.15;;;9.32;;
24259;SDS011;12384;48.112;18.418;2023-07-16T07:58:47;9.73;;;9.05;;
24259;SDS011;12384;48.112;18.418;2023-07-16T08:01:15;9.70;;;9.00;;
24259;SDS011;12384;48.112;18.418;2023-07-16T08:03:44;10.02;;;9.13;;
24259;SDS011;12384;48.112;18.418;2023-07-16T08:06:12;9.50;;;8.80;;
24259;SDS011;12384;48.112;18.418;2023-07-16T08:08:43;10.20;;;9.45;;
24259;SDS011;12384;48.112;18.418;2023-07-16T08:11:11;8.93;;;8.23;;
24259;SDS011;12384;48.112;18.418;2023-07-16T08:13:40;9.60;;;9.00;;
24259;SDS011;12384;48.112;18.418;2023-07-16T08:16:08;8.63;;;7.95;;
24259;SDS011;12384;48.112;18.418;2023-07-16T08:18:37;9.02;;;8.20;;
24259;SDS011;12384;48.112;18.418;2023-07-16T08:21:05;8.63;;;8.13;;
24259;SDS011;12384;48.112;18.418;2023-07-16T08:23:34;8.95;;;8.15;;
24259;SDS011;12384;48.112;18.418;2023-07-16T08:26:03;8.68;;;8.07;;
24259;SDS011;12384;48.112;18.418;2023-07-16T08:28:32;9.05;;;8.38;;
24259;SDS011;12384;48.112;18.418;2023-07-16T08:31:00;8.30;;;7.72;;
24259;SDS011;12384;48.112;18.418;2023-07-16T08:33:29;8.82;;;8.27;;
24259;SDS011;12384;48.112;18.418;2023-07-16T08:35:57;8.63;;;7.97;;
24259;SDS011;12384;48.112;18.418;2023-07-16T08:38:26;8.70;;;8.20;;
24259;SDS011;12384;48.112;18.418;2023-07-16T08:40:54;9.02;;;8.07;;
24259;SDS011;12384;48.112;18.418;2023-07-16T08:43:24;8.95;;;8.35;;
24259;SDS011;12384;48.112;18.418;2023-07-16T08:45:52;9.25;;;8.55;;
24259;SDS011;12384;48.112;18.418;2023-07-16T08:48:21;9.32;;;8.73;;
24259;SDS011;12384;48.112;18.418;2023-07-16T08:50:50;8.85;;;8.20;;
24259;SDS011;12384;48.112;18.418;2023-07-16T08:53:19;9.00;;;8.40;;
24259;SDS011;12384;48.112;18.418;2023-07-16T08:55:48;8.75;;;8.10;;
24259;SDS011;12384;48.112;18.418;2023-07-16T08:58:19;8.57;;;7.97;;
24259;SDS011;12384;48.112;18.418;2023-07-16T09:00:51;8.43;;;7.72;;
24259;SDS011;12384;48.112;18.418;2023-07-16T09:03:20;8.48;;;7.97;;
24259;SDS011;12384;48.112;18.418;2023-07-16T09:05:49;8.55;;;7.95;;
24259;SDS011;12384;48.112;18.418;2023-07-16T09:08:17;8.98;;;8.20;;
24259;SDS011;12384;48.112;18.418;2023-07-16T09:10:52;9.57;;;8.90;;
24259;SDS011;12384;48.112;18.418;2023-07-16T09:13:21;9.00;;;8.40;;
24259;SDS011;12384;48.112;18.418;2023-07-16T09:15:54;9.10;;;8.40;;
24259;SDS011;12384;48.112;18.418;2023-07-16T09:18:24;8.90;;;8.23;;
24259;SDS011;12384;48.112;18.418;2023-07-16T09:20:54;9.45;;;8.75;;
24259;SDS011;12384;48.112;18.418;2023-07-16T09:23:24;9.40;;;8.52;;
24259;SDS011;12384;48.112;18.418;2023-07-16T09:25:54;8.98;;;8.32;;
24259;SDS011;12384;48.112;18.418;2023-07-16T09:28:24;8.50;;;7.90;;
24259;SDS011;12384;48.112;18.418;2023-07-16T09:30:53;8.73;;;8.13;;
24259;SDS011;12384;48.112;18.418;2023-07-16T09:33:22;9.20;;;8.50;;
24259;SDS011;12384;48.112;18.418;2023-07-16T09:35:53;8.50;;;7.80;;
24259;SDS011;12384;48.112;18.418;2023-07-16T09:38:21;8.20;;;7.70;;
24259;SDS011;12384;48.112;18.418;2023-07-16T09:40:52;8.30;;;7.70;;
24259;SDS011;12384;48.112;18.418;2023-07-16T09:43:21;8.73;;;8.13;;
24259;SDS011;12384;48.112;18.418;2023-07-16T09:45:51;7.97;;;7.38;;
24259;SDS011;12384;48.112;18.418;2023-07-16T09:48:20;8.90;;;8.30;;
24259;SDS011;12384;48.112;18.418;2023-07-16T09:50:49;9.00;;;8.30;;
24259;SDS011;12384;48.112;18.418;2023-07-16T09:53:21;9.18;;;8.57;;
24259;SDS011;12384;48.112;18.418;2023-07-16T09:55:53;8.32;;;7.82;;
24259;SDS011;12384;48.112;18.418;2023-07-16T09:58:23;8.45;;;7.85;;
24259;SDS011;12384;48.112;18.418;2023-07-16T10:00:53;7.85;;;7.38;;
24259;SDS011;12384;48.112;18.418;2023-07-16T10:03:23;8.93;;;8.32;;
24259;SDS011;12384;48.112;18.418;2023-07-16T10:05:51;8.70;;;8.07;;
24259;SDS011;12384;48.112;18.418;2023-07-16T10:08:20;7.63;;;7.20;;
24259;SDS011;12384;48.112;18.418;2023-07-16T10:10:52;7.88;;;7.38;;
24259;SDS011;12384;48.112;18.418;2023-07-16T10:13:26;8.10;;;7.57;;
24259;SDS011;12384;48.112;18.418;2023-07-16T10:15:55;8.00;;;7.50;;
24259;SDS011;12384;48.112;18.418;2023-07-16T10:18:28;8.07;;;7.50;;
24259;SDS011;12384;48.112;18.418;2023-07-16T10:21:02;8.35;;;7.75;;
24259;SDS011;12384;48.112;18.418;2023-07-16T10:23:37;8.07;;;7.55;;
24259;SDS011;12384;48.112;18.418;2023-07-16T10:26:07;8.55;;;7.95;;
24259;SDS011;12384;48.112;18.418;2023-07-16T10:28:45;8.98;;;8.27;;
24259;SDS011;12384;48.112;18.418;2023-07-16T10:31:18;8.40;;;7.80;;
24259;SDS011;12384;48.112;18.418;2023-07-16T10:33:58;8.32;;;7.82;;
24259;SDS011;12384;48.112;18.418;2023-07-16T10:36:28;9.13;;;8.52;;
24259;SDS011;12384;48.112;18.418;2023-07-16T10:39:01;8.52;;;7.82;;
24259;SDS011;12384;48.112;18.418;2023-07-16T10:41:30;8.82;;;8.20;;
24259;SDS011;12384;48.112;18.418;2023-07-16T10:44:01;9.30;;;8.30;;
24259;SDS011;12384;48.112;18.418;2023-07-16T10:46:30;8.80;;;7.90;;
24259;SDS011;12384;48.112;18.418;2023-07-16T10:49:01;8.48;;;7.90;;
24259;SDS011;12384;48.112;18.418;2023-07-16T10:51:29;8.95;;;8.25;;
24259;SDS011;12384;48.112;18.418;2023-07-16T10:53:57;8.75;;;7.90;;
24259;SDS011;12384;48.112;18.418;2023-07-16T10:56:26;8.52;;;8.00;;
24259;SDS011;12384;48.112;18.418;2023-07-16T10:58:55;9.07;;;8.30;;
24259;SDS011;12384;48.112;18.418;2023-07-16T11:01:24;8.75;;;8.15;;
24259;SDS011;12384;48.112;18.418;2023-07-16T11:04:00;9.02;;;8.35;;
24259;SDS011;12384;48.112;18.418;2023-07-16T11:06:29;9.43;;;8.73;;
24259;SDS011;12384;48.112;18.418;2023-07-16T11:09:05;9.05;;;8.45;;
24259;SDS011;12384;48.112;18.418;2023-07-16T11:11:34;9.65;;;8.82;;
24259;SDS011;12384;48.112;18.418;2023-07-16T11:14:04;8.90;;;8.32;;
24259;SDS011;12384;48.112;18.418;2023-07-16T11:16:35;8.98;;;8.38;;
24259;SDS011;12384;48.112;18.418;2023-07-16T11:19:04;8.48;;;7.88;;
24259;SDS011;12384;48.112;18.418;2023-07-16T11:21:33;8.30;;;7.80;;
24259;SDS011;12384;48.112;18.418;2023-07-16T11:24:08;8.30;;;7.72;;
24259;SDS011;12384;48.112;18.418;2023-07-16T11:26:37;9.43;;;8.55;;
24259;SDS011;12384;48.112;18.418;2023-07-16T11:29:12;8.07;;;7.57;;
24259;SDS011;12384;48.112;18.418;2023-07-16T11:31:43;8.23;;;7.72;;
24259;SDS011;12384;48.112;18.418;2023-07-16T11:34:12;8.40;;;7.70;;
24259;SDS011;12384;48.112;18.418;2023-07-16T11:36:41;8.75;;;8.05;;
24259;SDS011;12384;48.112;18.418;2023-07-16T11:39:10;8.10;;;7.60;;
24259;SDS011;12384;48.112;18.418;2023-07-16T11:41:39;8.75;;;8.13;;
24259;SDS011;12384;48.112;18.418;2023-07-16T11:44:08;9.20;;;8.50;;
24259;SDS011;12384;48.112;18.418;2023-07-16T11:46:36;8.85;;;8.15;;
24259;SDS011;12384;48.112;18.418;2023-07-16T11:49:06;9.18;;;8.38;;
24259;SDS011;12384;48.112;18.418;2023-07-16T11:51:34;9.18;;;8.57;;
24259;SDS011;12384;48.112;18.418;2023-07-16T11:54:03;9.25;;;8.65;;
24259;SDS011;12384;48.112;18.418;2023-07-16T11:56:31;9.40;;;8.65;;
24259;SDS011;12384;48.112;18.418;2023-07-16T11:59:00;8.13;;;7.53;;
24259;SDS011;12384;48.112;18.418;2023-07-16T12:01:28;8.85;;;8.20;;
24259;SDS011;12384;48.112;18.418;2023-07-16T12:03:57;7.90;;;7.40;;
24259;SDS011;12384;48.112;18.418;2023-07-16T12:06:26;8.63;;;8.02;;
24259;SDS011;12384;48.112;18.418;2023-07-16T12:08:55;8.10;;;7.40;;
24259;SDS011;12384;48.112;18.418;2023-07-16T12:11:23;8.88;;;8.18;;
24259;SDS011;12384;48.112;18.418;2023-07-16T12:13:52;8.40;;;7.90;;
24259;SDS011;12384;48.112;18.418;2023-07-16T12:16:21;8.55;;;8.05;;
24259;SDS011;12384;48.112;18.418;2023-07-16T12:18:49;8.43;;;7.80;;
24259;SDS011;12384;48.112;18.418;2023-07-16T12:21:17;8.98;;;8.35;;
24259;SDS011;12384;48.112;18.418;2023-07-16T12:23:47;9.60;;;8.70;;
24259;SDS011;12384;48.112;18.418;2023-07-16T12:26:16;9.60;;;8.90;;
24259;SDS011;12384;48.112;18.418;2023-07-16T12:28:44;9.48;;;8.88;;
24259;SDS011;12384;48.112;18.418;2023-07-16T12:31:13;8.70;;;8.13;;
24259;SDS011;12384;48.112;18.418;2023-07-16T12:33:43;8.98;;;8.38;;
24259;SDS011;12384;48.112;18.418;2023-07-16T12:36:11;9.43;;;8.55;;
24259;SDS011;12384;48.112;18.418;2023-07-16T12:38:42;8.55;;;7.95;;
24259;SDS011;12384;48.112;18.418;2023-07-16T12:41:11;9.20;;;8.50;;
24259;SDS011;12384;48.112;18.418;2023-07-16T12:43:42;9.77;;;8.88;;
24259;SDS011;12384;48.112;18.418;2023-07-16T12:46:10;9.55;;;8.98;;
24259;SDS011;12384;48.112;18.418;2023-07-16T12:48:39;8.68;;;8.07;;
24259;SDS011;12384;48.112;18.418;2023-07-16T12:51:08;9.23;;;8.63;;
24259;SDS011;12384;48.112;18.418;2023-07-16T12:53:36;9.00;;;8.20;;
24259;SDS011;12384;48.112;18.418;2023-07-16T12:56:06;8.80;;;8.13;;
24259;SDS011;12384;48.112;18.418;2023-07-16T12:58:36;8.52;;;7.90;;
24259;SDS011;12384;48.112;18.418;2023-07-16T13:01:04;8.55;;;7.95;;
24259;SDS011;12384;48.112;18.418;2023-07-16T13:03:33;9.20;;;8.60;;
24259;SDS011;12384;48.112;18.418;2023-07-16T13:06:01;8.90;;;8.20;;
24259;SDS011;12384;48.112;18.418;2023-07-16T13:08:31;8.93;;;8.32;;
24259;SDS011;12384;48.112;18.418;2023-07-16T13:11:00;8.88;;;8.30;;
24259;SDS011;12384;48.112;18.418;2023-07-16T13:13:28;8.77;;;8.18;;
24259;SDS011;12384;48.112;18.418;2023-07-16T13:15:58;8.20;;;7.50;;
24259;SDS011;12384;48.112;18.418;2023-07-16T13:18:26;8.60;;;8.00;;
24259;SDS011;12384;48.112;18.418;2023-07-16T13:20:55;8.95;;;8.25;;
24259;SDS011;12384;48.112;18.418;2023-07-16T13:23:24;8.77;;;8.13;;
24259;SDS011;12384;48.112;18.418;2023-07-16T13:25:52;8.57;;;7.97;;
24259;SDS011;12384;48.112;18.418;2023-07-16T13:28:22;8.30;;;7.70;;
24259;SDS011;12384;48.112;18.418;2023-07-16T13:30:51;8.15;;;7.57;;
24259;SDS011;12384;48.112;18.418;2023-07-16T13:33:21;8.00;;;7.50;;
24259;SDS011;12384;48.112;18.418;2023-07-16T13:35:49;7.90;;;7.40;;
24259;SDS011;12384;48.112;18.418;2023-07-16T13:38:18;7.78;;;7.35;;
24259;SDS011;12384;48.112;18.418;2023-07-16T13:40:46;8.63;;;8.02;;
24259;SDS011;12384;48.112;18.418;2023-07-16T13:43:15;9.48;;;8.80;;
24259;SDS011;12384;48.112;18.418;2023-07-16T13:45:43;8.95;;;8.35;;
24259;SDS011;12384;48.112;18.418;2023-07-16T13:48:12;9.60;;;9.00;;
24259;SDS011;12384;48.112;18.418;2023-07-16T13:50:41;8.80;;;8.20;;
24259;SDS011;12384;48.112;18.418;2023-07-16T13:53:10;8.73;;;8.23;;
24259;SDS011;12384;48.112;18.418;2023-07-16T13:55:38;9.00;;;8.40;;
24259;SDS011;12384;48.112;18.418;2023-07-16T13:58:07;8.50;;;7.80;;
24259;SDS011;12384;48.112;18.418;2023-07-16T14:00:35;8.85;;;8.20;;
24259;SDS011;12384;48.112;18.418;2023-07-16T14:03:04;8.30;;;7.80;;
24259;SDS011;12384;48.112;18.418;2023-07-16T14:05:33;8.20;;;7.70;;
24259;SDS011;12384;48.112;18.418;2023-07-16T14:08:07;9.27;;;8.68;;
24259;SDS011;12384;48.112;18.418;2023-07-16T14:10:35;9.40;;;8.68;;
24259;SDS011;12384;48.112;18.418;2023-07-16T14:13:04;10.00;;;9.30;;
24259;SDS011;12384;48.112;18.418;2023-07-16T14:15:32;9.50;;;8.80;;
24259;SDS011;12384;48.112;18.418;2023-07-16T14:18:00;8.57;;;8.07;;
24259;SDS011;12384;48.112;18.418;2023-07-16T14:20:30;9.10;;;8.40;;
24259;SDS011;12384;48.112;18.418;2023-07-16T14:22:58;8.88;;;8.38;;
24259;SDS011;12384;48.112;18.418;2023-07-16T14:25:29;8.48;;;7.90;;
24259;SDS011;12384;48.112;18.418;2023-07-16T14:27:57;8.75;;;8.25;;
24259;SDS011;12384;48.112;18.418;2023-07-16T14:30:26;9.07;;;8.38;;
24259;SDS011;12384;48.112;18.418;2023-07-16T14:32:54;8.45;;;7.85;;
24259;SDS011;12384;48.112;18.418;2023-07-16T14:35:23;8.57;;;7.97;;